createdAt,value
2019-02-25T00:01:26.459Z,100.00
2019-02-25T00:03:57.273Z,100.00
2019-02-25T00:06:28.333Z,100.00
2019-02-25T00:08:59.156Z,100.00
2019-02-25T00:11:29.999Z,100.00
2019-02-25T00:14:00.831Z,100.00
2019-02-25T00:16:31.727Z,100.00
2019-02-25T00:19:02.634Z,100.00
2019-02-25T00:21:33.443Z,100.00
2019-02-25T00:24:04.378Z,100.00
2019-02-25T00:26:35.182Z,100.00
2019-02-25T00:29:06.256Z,100.00
2019-02-25T00:31:37.063Z,100.00
2019-02-25T00:34:07.901Z,100.00
2019-02-25T00:36:38.689Z,100.00
2019-02-25T00:39:09.610Z,100.00
2019-02-25T00:41:40.438Z,100.00
2019-02-25T00:44:11.354Z,100.00
2019-02-25T00:46:42.166Z,100.00
2019-02-25T00:49:12.983Z,100.00
2019-02-25T00:51:43.796Z,100.00
2019-02-25T00:54:14.603Z,100.00
2019-02-25T00:56:45.389Z,100.00
2019-02-25T00:59:16.213Z,100.00
2019-02-25T01:01:47.038Z,100.00
2019-02-25T01:04:18.123Z,100.00
2019-02-25T01:06:48.942Z,100.00
2019-02-25T01:09:19.771Z,100.00
2019-02-25T01:11:50.572Z,100.00
2019-02-25T01:14:21.417Z,100.00
2019-02-25T01:16:52.249Z,100.00
2019-02-25T01:19:23.050Z,100.00
2019-02-25T01:21:53.856Z,100.00
2019-02-25T01:24:24.661Z,100.00
2019-02-25T01:26:55.457Z,100.00
2019-02-25T01:29:26.278Z,100.00
2019-02-25T01:31:57.093Z,100.00
2019-02-25T01:34:27.932Z,100.00
2019-02-25T01:36:58.745Z,100.00
2019-02-25T01:39:29.583Z,100.00
2019-02-25T01:42:00.386Z,100.00
2019-02-25T01:44:31.203Z,100.00
2019-02-25T01:47:02.027Z,100.00
2019-02-25T01:49:32.838Z,100.00
2019-02-25T01:52:03.637Z,100.00
2019-02-25T01:54:34.435Z,100.00
2019-02-25T01:57:05.243Z,100.00
2019-02-25T01:59:36.032Z,100.00
2019-02-25T02:02:06.854Z,100.00
2019-02-25T02:04:37.669Z,100.00
2019-02-25T02:07:08.500Z,100.00
2019-02-25T02:09:39.294Z,100.00
2019-02-25T02:12:10.106Z,100.00
2019-02-25T02:14:40.907Z,100.00
2019-02-25T02:17:11.730Z,100.00
2019-02-25T02:19:42.534Z,100.00
2019-02-25T02:22:13.339Z,100.00
2019-02-25T02:24:44.131Z,100.00
2019-02-25T02:27:14.965Z,100.00
2019-02-25T02:29:45.802Z,100.00
2019-02-25T02:32:16.615Z,100.00
2019-02-25T02:34:47.431Z,100.00
2019-02-25T02:37:18.263Z,100.00
2019-02-25T02:39:49.061Z,100.00
2019-02-25T02:42:19.965Z,100.00
2019-02-25T02:44:52.555Z,100.00
2019-02-25T02:47:27.186Z,100.00
2019-02-25T02:49:59.816Z,100.00
2019-02-25T02:52:30.628Z,100.00
2019-02-25T02:55:02.034Z,100.00
2019-02-25T02:57:32.838Z,100.00
2019-02-25T03:00:10.537Z,100.00
2019-02-25T03:02:41.647Z,100.00
2019-02-25T03:05:14.254Z,100.00
2019-02-25T03:07:45.080Z,100.00
2019-02-25T03:10:17.293Z,100.00
2019-02-25T03:12:48.100Z,100.00
2019-02-25T03:15:20.416Z,100.00
2019-02-25T03:17:51.229Z,100.00
2019-02-25T03:20:22.044Z,100.00
2019-02-25T03:22:52.867Z,100.00
2019-02-25T03:25:23.665Z,100.00
2019-02-25T03:27:54.474Z,100.00
2019-02-25T03:30:25.289Z,100.00
2019-02-25T03:32:56.106Z,100.00
2019-02-25T03:35:26.898Z,100.00
2019-02-25T03:37:57.710Z,100.00
2019-02-25T03:40:28.506Z,100.00
2019-02-25T03:42:59.343Z,100.00
2019-02-25T03:45:30.143Z,100.00
2019-02-25T03:48:00.959Z,100.00
2019-02-25T03:50:31.769Z,100.00
2019-02-25T03:53:02.574Z,100.00
2019-02-25T03:55:33.371Z,100.00
2019-02-25T03:58:04.191Z,100.00
2019-02-25T04:00:35.020Z,100.00
2019-02-25T04:03:05.824Z,100.00
2019-02-25T04:05:36.614Z,100.00
2019-02-25T04:08:07.434Z,100.00
2019-02-25T04:10:38.239Z,100.00
2019-02-25T04:13:09.042Z,100.00
2019-02-25T04:15:41.755Z,100.00
2019-02-25T04:18:12.583Z,100.00
2019-02-25T04:20:43.733Z,100.00
2019-02-25T04:23:14.662Z,100.00
2019-02-25T04:25:45.471Z,100.00
2019-02-25T04:28:16.319Z,100.00
2019-02-25T04:30:47.129Z,100.00
2019-02-25T04:33:17.969Z,100.00
2019-02-25T04:35:48.771Z,100.00
2019-02-25T04:38:19.589Z,100.00
2019-02-25T04:40:50.411Z,100.00
2019-02-25T04:43:21.268Z,100.00
2019-02-25T04:45:52.066Z,100.00
2019-02-25T04:48:22.892Z,100.00
2019-02-25T04:50:53.707Z,100.00
2019-02-25T04:53:24.513Z,100.00
2019-02-25T04:55:55.560Z,100.00
2019-02-25T04:58:26.389Z,100.00
2019-02-25T05:00:57.203Z,100.00
2019-02-25T05:03:28.017Z,100.00
2019-02-25T05:05:59.088Z,100.00
2019-02-25T05:08:29.906Z,100.00
2019-02-25T05:11:00.837Z,100.00
2019-02-25T05:13:31.654Z,100.00
2019-02-25T05:16:02.563Z,100.00
2019-02-25T05:18:33.377Z,100.00
2019-02-25T05:21:04.194Z,100.00
2019-02-25T05:23:35.046Z,100.00
2019-02-25T05:26:05.835Z,100.00
2019-02-25T05:28:36.677Z,100.00
2019-02-25T05:31:07.493Z,100.00
2019-02-25T05:33:38.303Z,100.00
2019-02-25T05:36:09.114Z,100.00
2019-02-25T05:38:39.912Z,100.00
2019-02-25T05:41:10.712Z,100.00
2019-02-25T05:43:41.520Z,100.00
2019-02-25T05:46:12.330Z,100.00
2019-02-25T05:48:43.144Z,100.00
2019-02-25T05:51:13.942Z,100.00
2019-02-25T05:53:44.816Z,100.00
2019-02-25T05:56:15.648Z,100.00
2019-02-25T05:58:46.465Z,100.00
2019-02-25T06:01:17.292Z,100.00
2019-02-25T06:03:48.098Z,100.00
2019-02-25T06:06:18.934Z,100.00
2019-02-25T06:08:49.750Z,100.00
2019-02-25T06:11:21.038Z,100.00
2019-02-25T06:13:51.836Z,100.00
2019-02-25T06:16:22.663Z,100.00
2019-02-25T06:18:53.479Z,100.00
2019-02-25T06:21:24.313Z,100.00
2019-02-25T06:23:55.116Z,100.00
2019-02-25T06:26:25.926Z,100.00
2019-02-25T06:28:56.745Z,100.00
2019-02-25T06:31:27.579Z,100.00
2019-02-25T06:33:58.397Z,100.00
2019-02-25T06:36:29.217Z,100.00
2019-02-25T06:39:00.038Z,100.00
2019-02-25T06:41:30.887Z,100.00
2019-02-25T06:44:01.700Z,100.00
2019-02-25T06:46:32.508Z,100.00
2019-02-25T06:49:03.307Z,100.00
2019-02-25T06:51:34.379Z,100.00
2019-02-25T06:54:05.188Z,100.00
2019-02-25T06:56:36.000Z,100.00
2019-02-25T06:59:06.803Z,100.00
2019-02-25T07:01:37.640Z,100.00
2019-02-25T07:04:12.850Z,100.00
2019-02-25T07:07:00.725Z,100.00
2019-02-25T07:09:39.227Z,100.00
2019-02-25T07:12:11.941Z,100.00
2019-02-25T07:14:47.705Z,100.00
2019-02-25T07:17:23.167Z,100.00
2019-02-25T07:19:55.869Z,100.00
2019-02-25T07:22:28.599Z,100.00
2019-02-25T07:25:07.112Z,100.00
2019-02-25T07:27:48.680Z,100.00
2019-02-25T07:30:27.192Z,100.00
2019-02-25T07:32:59.918Z,100.00
2019-02-25T07:35:41.486Z,100.00
2019-02-25T07:38:39.210Z,100.00
2019-02-25T07:41:22.685Z,100.00
2019-02-25T07:44:12.207Z,100.00
2019-02-25T07:47:03.167Z,100.00
2019-02-25T07:49:52.507Z,100.00
2019-02-25T07:52:25.228Z,100.00
2019-02-25T07:55:01.002Z,100.00
2019-02-25T07:57:45.877Z,100.00
2019-02-25T08:00:27.409Z,100.00
2019-02-25T08:03:02.957Z,100.00
2019-02-25T08:05:38.167Z,100.00
2019-02-25T08:08:22.783Z,100.00
2019-02-25T08:11:04.416Z,100.00
2019-02-25T08:13:37.200Z,100.00
2019-02-25T08:16:12.914Z,100.00
2019-02-25T08:19:02.611Z,100.00
2019-02-25T08:21:52.124Z,100.00
2019-02-25T08:24:31.056Z,100.00
2019-02-25T08:27:15.779Z,100.00
2019-02-25T08:29:51.010Z,100.00
2019-02-25T08:32:23.724Z,100.00
2019-02-25T08:35:08.431Z,100.00
2019-02-25T08:37:59.995Z,100.00
2019-02-25T08:40:42.562Z,100.00
2019-02-25T08:43:24.321Z,100.00
2019-02-25T08:45:57.028Z,100.00
2019-02-25T08:48:35.842Z,100.00
2019-02-25T08:51:06.651Z,100.00
2019-02-25T08:53:37.450Z,100.00
2019-02-25T08:56:08.260Z,100.00
2019-02-25T08:58:39.069Z,100.00
2019-02-25T09:01:09.892Z,100.00
2019-02-25T09:03:40.704Z,100.00
2019-02-25T09:06:11.528Z,100.00
2019-02-25T09:08:42.316Z,100.00
2019-02-25T09:11:14.379Z,100.00
2019-02-25T09:13:45.325Z,100.00
2019-02-25T09:16:16.185Z,100.00
2019-02-25T09:18:47.025Z,100.00
2019-02-25T09:21:17.829Z,99.66
2019-02-25T09:23:48.680Z,97.28
2019-02-25T09:26:19.480Z,95.62
2019-02-25T09:28:50.292Z,92.92
2019-02-25T09:31:21.114Z,90.46
2019-02-25T09:33:51.924Z,84.71
2019-02-25T09:36:22.755Z,79.54
2019-02-25T09:38:53.557Z,77.09
2019-02-25T09:41:29.915Z,73.87
2019-02-25T09:43:57.081Z,69.03
2019-02-25T09:46:27.896Z,66.76
2019-02-25T09:48:58.683Z,63.77
2019-02-25T09:51:29.541Z,61.21
2019-02-25T09:54:00.599Z,59.25
2019-02-25T09:56:31.426Z,60.48
2019-02-25T09:59:02.254Z,58.25
2019-02-25T10:01:33.057Z,55.98
2019-02-25T10:04:03.846Z,55.57
2019-02-25T10:06:34.664Z,52.41
2019-02-25T10:09:05.458Z,52.21
2019-02-25T10:11:36.271Z,53.96
2019-02-25T10:14:07.076Z,52.91
2019-02-25T10:16:37.881Z,48.72
2019-02-25T10:19:08.685Z,49.01
2019-02-25T10:21:39.492Z,47.74
2019-02-25T10:24:10.296Z,49.69
2019-02-25T10:26:41.109Z,48.03
2019-02-25T10:29:11.920Z,45.09
2019-02-25T10:31:43.808Z,45.93
2019-02-25T10:34:14.624Z,46.61
2019-02-25T10:36:46.098Z,45.89
2019-02-25T10:39:19.785Z,44.00
2019-02-25T10:41:51.153Z,45.41
2019-02-25T10:44:23.370Z,44.35
2019-02-25T10:46:54.196Z,45.20
2019-02-25T10:49:26.640Z,45.68
2019-02-25T10:51:57.729Z,44.89
2019-02-25T10:54:28.483Z,44.28
2019-02-25T10:56:59.330Z,45.23
2019-02-25T10:59:32.139Z,44.89
2019-02-25T11:02:03.078Z,44.22
2019-02-25T11:04:34.180Z,44.56
2019-02-25T11:07:07.180Z,45.28
2019-02-25T11:09:41.538Z,46.34
2019-02-25T11:12:12.464Z,45.59
2019-02-25T11:14:43.451Z,46.47
2019-02-25T11:17:16.146Z,45.65
2019-02-25T11:19:47.291Z,45.65
2019-02-25T11:22:18.124Z,44.80
2019-02-25T11:24:50.995Z,46.30
2019-02-25T11:27:21.665Z,47.90
2019-02-25T11:29:52.457Z,47.53
2019-02-25T11:32:23.689Z,49.60
2019-02-25T11:34:56.249Z,50.27
2019-02-25T11:37:27.188Z,50.94
2019-02-25T11:39:59.827Z,50.94
2019-02-25T11:42:30.645Z,50.57
2019-02-25T11:45:02.396Z,50.41
2019-02-25T11:47:34.159Z,51.34
2019-02-25T11:50:13.716Z,52.45
2019-02-25T11:52:44.641Z,53.94
2019-02-25T11:55:15.553Z,50.23
2019-02-25T11:57:46.368Z,50.50
2019-02-25T12:00:24.474Z,50.90
2019-02-25T12:02:55.308Z,55.50
2019-02-25T12:05:26.119Z,56.30
2019-02-25T12:07:56.937Z,55.72
2019-02-25T12:10:27.741Z,52.76
2019-02-25T12:12:58.565Z,52.98
2019-02-25T12:15:29.374Z,50.17
2019-02-25T12:18:00.180Z,52.80
2019-02-25T12:20:31.099Z,55.03
2019-02-25T12:23:01.907Z,50.29
2019-02-25T12:25:32.709Z,50.52
2019-02-25T12:28:03.536Z,49.69
2019-02-25T12:30:34.356Z,51.44
2019-02-25T12:33:05.267Z,55.66
2019-02-25T12:35:36.089Z,56.49
2019-02-25T12:38:07.014Z,53.70
2019-02-25T12:40:37.812Z,57.09
2019-02-25T12:43:08.648Z,54.31
2019-02-25T12:45:39.461Z,58.40
2019-02-25T12:48:10.278Z,54.92
2019-02-25T12:50:41.071Z,56.23
2019-02-25T12:53:11.892Z,56.83
2019-02-25T12:55:42.702Z,60.30
2019-02-25T12:58:13.524Z,57.15
2019-02-25T13:00:44.344Z,60.39
2019-02-25T13:03:15.169Z,56.98
2019-02-25T13:05:45.992Z,59.94
2019-02-25T13:08:16.817Z,62.87
2019-02-25T13:10:47.673Z,63.60
2019-02-25T13:13:18.469Z,60.71
2019-02-25T13:15:49.295Z,62.44
2019-02-25T13:18:20.118Z,57.58
2019-02-25T13:20:50.934Z,63.17
2019-02-25T13:23:21.757Z,63.48
2019-02-25T13:25:52.581Z,61.99
2019-02-25T13:28:24.179Z,60.74
2019-02-25T13:30:56.099Z,60.95
2019-02-25T13:33:26.897Z,62.52
2019-02-25T13:35:57.917Z,60.76
2019-02-25T13:38:28.726Z,61.71
2019-02-25T13:40:59.541Z,64.31
2019-02-25T13:43:30.311Z,67.38
2019-02-25T13:46:01.099Z,67.99
2019-02-25T13:48:31.923Z,70.55
2019-02-25T13:51:02.907Z,70.30
2019-02-25T13:53:33.685Z,70.42
2019-02-25T13:56:04.479Z,72.64
2019-02-25T13:58:35.291Z,70.51
2019-02-25T14:01:06.121Z,71.11
2019-02-25T14:03:36.956Z,70.97
2019-02-25T14:06:07.856Z,70.92
2019-02-25T14:08:38.651Z,71.75
2019-02-25T14:11:09.466Z,71.58
2019-02-25T14:13:40.263Z,71.03
2019-02-25T14:16:11.097Z,70.63
2019-02-25T14:18:41.922Z,71.21
2019-02-25T14:21:14.783Z,72.42
2019-02-25T14:23:45.661Z,70.83
2019-02-25T14:26:18.933Z,71.53
2019-02-25T14:28:49.187Z,72.30
2019-02-25T14:31:19.996Z,71.75
2019-02-25T14:33:52.353Z,72.82
2019-02-25T14:36:23.227Z,72.28
2019-02-25T14:38:54.682Z,72.49
2019-02-25T14:41:26.777Z,74.25
2019-02-25T14:43:58.750Z,73.85
2019-02-25T14:46:29.800Z,75.02
2019-02-25T14:49:00.680Z,75.68
2019-02-25T14:51:31.501Z,79.26
2019-02-25T14:54:02.327Z,78.96
2019-02-25T14:56:33.257Z,77.74
2019-02-25T14:59:07.676Z,77.54
2019-02-25T15:01:36.829Z,77.69
2019-02-25T15:04:07.629Z,76.59
2019-02-25T15:06:38.434Z,78.22
2019-02-25T15:09:11.902Z,79.03
2019-02-25T15:11:42.362Z,79.11
2019-02-25T15:14:14.978Z,80.22
2019-02-25T15:16:45.898Z,80.02
2019-02-25T15:19:17.595Z,81.75
2019-02-25T15:21:50.088Z,82.53
2019-02-25T15:24:21.238Z,81.83
2019-02-25T15:26:52.108Z,82.96
2019-02-25T15:29:22.970Z,82.96
2019-02-25T15:31:54.743Z,83.72
2019-02-25T15:34:26.011Z,84.04
2019-02-25T15:36:58.616Z,85.28
2019-02-25T15:39:29.562Z,87.44
2019-02-25T15:42:00.363Z,88.11
2019-02-25T15:44:31.161Z,89.34
2019-02-25T15:47:02.548Z,91.45
2019-02-25T15:49:35.043Z,91.36
2019-02-25T15:52:05.829Z,92.93
2019-02-25T15:54:37.258Z,92.71
2019-02-25T15:57:09.289Z,94.24
2019-02-25T15:59:40.138Z,95.37
2019-02-25T16:02:14.188Z,96.49
2019-02-25T16:04:43.657Z,96.91
2019-02-25T16:07:14.434Z,97.96
2019-02-25T16:09:45.511Z,98.11
2019-02-25T16:12:16.261Z,98.10
2019-02-25T16:14:48.869Z,99.21
2019-02-25T16:17:19.743Z,100.00
2019-02-25T16:19:53.277Z,100.00
2019-02-25T16:22:25.749Z,100.00
2019-02-25T16:24:55.878Z,100.00
2019-02-25T16:27:27.385Z,100.00
2019-02-25T16:29:59.970Z,100.00
2019-02-25T16:32:30.998Z,100.00
2019-02-25T16:35:02.722Z,100.00
2019-02-25T16:37:35.586Z,100.00
2019-02-25T16:40:10.904Z,100.00
2019-02-25T16:42:41.674Z,100.00
2019-02-25T16:45:20.039Z,100.00
2019-02-25T16:47:50.951Z,100.00
2019-02-25T16:50:23.279Z,100.00
2019-02-25T16:52:54.148Z,100.00
2019-02-25T16:55:27.507Z,100.00
2019-02-25T16:57:59.054Z,100.00
2019-02-25T17:00:32.463Z,100.00
2019-02-25T17:03:05.981Z,100.00
2019-02-25T17:05:37.944Z,100.00
2019-02-25T17:08:12.611Z,100.00
2019-02-25T17:10:43.561Z,100.00
2019-02-25T17:13:15.435Z,100.00
2019-02-25T17:15:47.175Z,100.00
2019-02-25T17:18:18.020Z,100.00
2019-02-25T17:20:50.279Z,100.00
2019-02-25T17:23:22.909Z,100.00
2019-02-25T17:25:54.003Z,100.00
2019-02-25T17:28:26.916Z,100.00
2019-02-25T17:30:57.443Z,100.00
2019-02-25T17:33:28.767Z,100.00
2019-02-25T17:36:00.998Z,100.00
2019-02-25T17:38:31.848Z,100.00
2019-02-25T17:41:04.051Z,100.00
2019-02-25T17:43:36.872Z,100.00
2019-02-25T17:46:09.243Z,100.00
2019-02-25T17:48:40.689Z,100.00
2019-02-25T17:51:11.495Z,100.00
2019-02-25T17:53:43.862Z,100.00
2019-02-25T17:56:14.912Z,100.00
2019-02-25T17:58:46.707Z,100.00
2019-02-25T18:01:19.692Z,100.00
2019-02-25T18:03:50.273Z,100.00
2019-02-25T18:06:25.803Z,100.00
2019-02-25T18:08:55.834Z,100.00
2019-02-25T18:11:26.416Z,100.00
2019-02-25T18:13:57.823Z,100.00
2019-02-25T18:16:28.756Z,100.00
2019-02-25T18:18:59.521Z,100.00
2019-02-25T18:21:30.278Z,100.00
2019-02-25T18:24:01.286Z,100.00
2019-02-25T18:26:32.263Z,100.00
2019-02-25T18:29:03.047Z,100.00
2019-02-25T18:31:35.790Z,100.00
2019-02-25T18:34:08.654Z,100.00
2019-02-25T18:36:39.560Z,100.00
2019-02-25T18:39:11.169Z,100.00
2019-02-25T18:41:42.135Z,100.00
2019-02-25T18:44:13.555Z,100.00
2019-02-25T18:46:46.131Z,100.00
2019-02-25T18:49:18.256Z,100.00
2019-02-25T18:51:49.018Z,100.00
2019-02-25T18:54:21.247Z,100.00
2019-02-25T18:56:52.471Z,100.00
2019-02-25T18:59:23.531Z,100.00
2019-02-25T19:01:54.325Z,100.00
2019-02-25T19:04:25.761Z,100.00
2019-02-25T19:06:56.579Z,100.00
2019-02-25T19:09:27.817Z,100.00
2019-02-25T19:11:58.683Z,100.00
2019-02-25T19:14:31.133Z,100.00
2019-02-25T19:17:04.258Z,100.00
2019-02-25T19:19:38.177Z,100.00
2019-02-25T19:22:08.659Z,100.00
2019-02-25T19:24:42.232Z,100.00
2019-02-25T19:27:13.229Z,100.00
2019-02-25T19:29:45.580Z,100.00
2019-02-25T19:32:16.720Z,100.00
2019-02-25T19:34:47.572Z,100.00
2019-02-25T19:37:18.580Z,100.00
2019-02-25T19:39:50.650Z,100.00
2019-02-25T19:42:22.884Z,100.00
2019-02-25T19:44:54.111Z,100.00
2019-02-25T19:47:24.872Z,100.00
2019-02-25T19:49:57.229Z,100.00
2019-02-25T19:52:30.673Z,100.00
2019-02-25T19:55:01.089Z,100.00
2019-02-25T19:57:31.847Z,100.00
2019-02-25T20:00:08.948Z,100.00
2019-02-25T20:02:39.731Z,100.00
2019-02-25T20:05:11.870Z,100.00
2019-02-25T20:07:43.167Z,100.00
2019-02-25T20:10:14.176Z,100.00
2019-02-25T20:12:44.907Z,100.00
2019-02-25T20:15:18.748Z,100.00
2019-02-25T20:17:51.142Z,100.00
2019-02-25T20:20:24.837Z,100.00
2019-02-25T20:22:57.351Z,100.00
2019-02-25T20:25:28.781Z,100.00
2019-02-25T20:28:00.310Z,100.00
2019-02-25T20:30:32.352Z,100.00
2019-02-25T20:33:03.814Z,100.00
2019-02-25T20:35:35.451Z,100.00
2019-02-25T20:38:06.458Z,100.00
2019-02-25T20:40:37.230Z,100.00
2019-02-25T20:43:07.986Z,100.00
2019-02-25T20:45:39.290Z,100.00
2019-02-25T20:48:10.045Z,100.00
2019-02-25T20:50:40.807Z,100.00
2019-02-25T20:53:11.569Z,100.00
2019-02-25T20:55:42.340Z,100.00
2019-02-25T20:58:13.973Z,100.00
2019-02-25T21:00:46.592Z,100.00
2019-02-25T21:03:20.717Z,100.00
2019-02-25T21:05:51.570Z,100.00
2019-02-25T21:08:23.513Z,100.00
2019-02-25T21:10:54.403Z,100.00
2019-02-25T21:13:28.461Z,100.00
2019-02-25T21:15:58.707Z,100.00
2019-02-25T21:18:31.059Z,100.00
2019-02-25T21:21:01.794Z,100.00
2019-02-25T21:23:32.550Z,100.00
2019-02-25T21:26:06.347Z,100.00
2019-02-25T21:28:38.040Z,100.00
2019-02-25T21:31:13.526Z,100.00
2019-02-25T21:33:44.831Z,100.00
2019-02-25T21:36:14.043Z,100.00
2019-02-25T21:38:45.833Z,100.00
2019-02-25T21:41:17.735Z,100.00
2019-02-25T21:43:49.425Z,100.00
2019-02-25T21:46:22.445Z,100.00
2019-02-25T21:48:55.038Z,100.00
2019-02-25T21:51:30.335Z,100.00
2019-02-25T21:54:00.000Z,100.00
2019-02-25T21:56:31.920Z,100.00
2019-02-25T21:59:02.779Z,100.00
2019-02-25T22:01:34.544Z,100.00
2019-02-25T22:04:09.269Z,100.00
2019-02-25T22:06:38.970Z,100.00
2019-02-25T22:09:09.758Z,100.00
2019-02-25T22:11:40.557Z,100.00
2019-02-25T22:14:12.298Z,100.00
2019-02-25T22:16:44.453Z,100.00
2019-02-25T22:19:16.506Z,100.00
2019-02-25T22:21:51.573Z,100.00
2019-02-25T22:24:24.741Z,100.00
2019-02-25T22:26:54.151Z,100.00
2019-02-25T22:29:26.260Z,100.00
2019-02-25T22:31:57.064Z,100.00
2019-02-25T22:34:27.867Z,100.00
2019-02-25T22:36:58.683Z,100.00
2019-02-25T22:39:31.829Z,100.00
2019-02-25T22:42:03.588Z,100.00
2019-02-25T22:44:34.962Z,100.00
2019-02-25T22:47:09.223Z,100.00
2019-02-25T22:49:38.552Z,100.00
2019-02-25T22:52:09.342Z,100.00
2019-02-25T22:54:41.733Z,100.00
2019-02-25T22:57:12.871Z,100.00
2019-02-25T22:59:43.705Z,100.00
2019-02-25T23:02:14.527Z,100.00
2019-02-25T23:04:47.306Z,100.00
2019-02-25T23:07:20.009Z,100.00
2019-02-25T23:09:52.325Z,100.00
2019-02-25T23:12:24.357Z,100.00
2019-02-25T23:14:58.158Z,100.00
2019-02-25T23:17:31.098Z,100.00
2019-02-25T23:20:05.683Z,100.00
2019-02-25T23:22:38.661Z,100.00
2019-02-25T23:25:10.823Z,100.00
2019-02-25T23:27:41.588Z,100.00
2019-02-25T23:30:13.423Z,100.00
2019-02-25T23:32:44.347Z,100.00
2019-02-25T23:35:16.411Z,100.00
2019-02-25T23:37:51.047Z,100.00
2019-02-25T23:40:20.605Z,100.00
2019-02-25T23:42:51.413Z,100.00
2019-02-25T23:45:23.176Z,100.00
2019-02-25T23:47:57.618Z,100.00
2019-02-25T23:50:28.002Z,100.00
2019-02-25T23:52:59.734Z,100.00
2019-02-25T23:55:30.589Z,100.00
2019-02-25T23:58:01.389Z,100.00
